Sangen Maru — JL5229 — position and weather

sailwx.info

Track history (hours):
 
Tides and Currents Weather Stations Pressure Air Temp Water Temp Dewpoint Dewpoint Depression Visibility Wind Speed Wind Dir Waves Ship Positions

Sangen Maru

Last reported at 2017-Nov-16 16:38 UTC. Time now 2017-Nov-21 13:44 UTC.
Position N 34°38' E 134°59'.

Length 72 m; draft 3.6 m.

Type: Tanker. MMSI: 431501792.

Date/timePositionNaut miles runAvg speedWind from/ knotsBaromVisibWave heightAir tempDewpointWater temp
2017-Nov-16 16:38N 34°38' E 134°59'1 8.7
2017-Nov-16 16:27N 34°37' E 135°01'4 7.9
2017-Nov-16 16:00N 34°35' E 135°05'5 9.8
2017-Nov-16 15:28N 34°30' E 135°04'611.4
2017-Nov-16 14:59N 34°25' E 135°02'511.1
2017-Nov-16 14:30N 34°20' E 135°00'5 9.7
2017-Nov-16 14:00N 34°15' E 134°59'611.2
2017-Nov-16 13:30N 34°09' E 135°00'611.7
2017-Nov-16 13:00N 34°04' E 135°01'3 0.5
2017-Nov-16 06:09N 34°06' E 135°04'210.6
2017-Nov-16 06:00N 34°07' E 135°05'2 0.3
2017-Nov-15 23:57N 34°07' E 135°07'0 0.2
2017-Nov-15 22:03N 34°08' E 135°07'0 2.4
2017-Nov-15 22:00N 34°08' E 135°07'4 7.4
2017-Nov-15 21:30N 34°05' E 135°04'205 8.1
2017-Nov-14 20:07N 34°48' E 139°07'210.8
2017-Nov-14 19:57N 34°50' E 139°08'510.9
2017-Nov-14 19:27N 34°54' E 139°13'1810.9
2017-Nov-14 17:50N 35°02' E 139°32'310.6
2017-Nov-14 17:30N 35°04' E 139°35'511.1
2017-Nov-14 17:00N 35°07' E 139°41'510.7
2017-Nov-14 16:30N 35°11' E 139°45'510.3
2017-Nov-14 16:00N 35°16' E 139°46'511.0
2017-Nov-14 15:30N 35°21' E 139°42'510.4
2017-Nov-14 15:00N 35°26' E 139°45'5 9.6
2017-Nov-14 14:30N 35°30' E 139°47'2 1.0
2017-Nov-14 12:41N 35°32' E 139°46'0 0.0
2017-Nov-14 07:53N 35°32' E 139°46'2 6.3
2017-Nov-14 07:30N 35°30' E 139°48'1 0.1
2017-Nov-13 23:37N 35°29' E 139°49'1 7.3
2017-Nov-13 23:30N 35°30' E 139°48'3 1.6
2017-Nov-13 21:52N 35°31' E 139°46'4 0.2
2017-Nov-13 01:31N 35°29' E 139°49'0 1.4
2017-Nov-13 01:28N 35°29' E 139°49'5 9.6
2017-Nov-13 01:00N 35°25' E 139°47'612.2
2017-Nov-13 00:30N 35°19' E 139°44'611.4
2017-Nov-13 00:00N 35°14' E 139°47'611.3
2017-Nov-12 23:30N 35°08' E 139°46'511.0
2017-Nov-12 23:00N 35°03' E 139°44'610.8
2017-Nov-12 22:29N 34°57' E 139°44'  
Track history (hours):
 
Tides and Currents Weather Stations Pressure Air Temp Water Temp Dewpoint Dewpoint Depression Visibility Wind Speed Wind Dir Waves Ship Positions

Sangen Maru

Last reported at 2017-Nov-16 16:38 UTC. Time now 2017-Nov-21 13:44 UTC.
Position N 34°38' E 134°59'.

Length 72 m; draft 3.6 m.

Type: Tanker. MMSI: 431501792.

Date/timePositionNaut miles runAvg speedWind from/ knotsBaromVisibWave heightAir tempDewpointWater temp
2017-Nov-16 16:38N 34°38' E 134°59'1 8.7
2017-Nov-16 16:27N 34°37' E 135°01'4 7.9
2017-Nov-16 16:00N 34°35' E 135°05'5 9.8
2017-Nov-16 15:28N 34°30' E 135°04'611.4
2017-Nov-16 14:59N 34°25' E 135°02'511.1
2017-Nov-16 14:30N 34°20' E 135°00'5 9.7
2017-Nov-16 14:00N 34°15' E 134°59'611.2
2017-Nov-16 13:30N 34°09' E 135°00'611.7
2017-Nov-16 13:00N 34°04' E 135°01'3 0.5
2017-Nov-16 06:09N 34°06' E 135°04'210.6
2017-Nov-16 06:00N 34°07' E 135°05'2 0.3
2017-Nov-15 23:57N 34°07' E 135°07'0 0.2
2017-Nov-15 22:03N 34°08' E 135°07'0 2.4
2017-Nov-15 22:00N 34°08' E 135°07'4 7.4
2017-Nov-15 21:30N 34°05' E 135°04'205 8.1
2017-Nov-14 20:07N 34°48' E 139°07'210.8
2017-Nov-14 19:57N 34°50' E 139°08'510.9
2017-Nov-14 19:27N 34°54' E 139°13'1810.9
2017-Nov-14 17:50N 35°02' E 139°32'310.6
2017-Nov-14 17:30N 35°04' E 139°35'511.1
2017-Nov-14 17:00N 35°07' E 139°41'510.7
2017-Nov-14 16:30N 35°11' E 139°45'510.3
2017-Nov-14 16:00N 35°16' E 139°46'511.0
2017-Nov-14 15:30N 35°21' E 139°42'510.4
2017-Nov-14 15:00N 35°26' E 139°45'5 9.6
2017-Nov-14 14:30N 35°30' E 139°47'2 1.0
2017-Nov-14 12:41N 35°32' E 139°46'0 0.0
2017-Nov-14 07:53N 35°32' E 139°46'2 6.3
2017-Nov-14 07:30N 35°30' E 139°48'1 0.1
2017-Nov-13 23:37N 35°29' E 139°49'1 7.3
2017-Nov-13 23:30N 35°30' E 139°48'3 1.6
2017-Nov-13 21:52N 35°31' E 139°46'4 0.2
2017-Nov-13 01:31N 35°29' E 139°49'0 1.4
2017-Nov-13 01:28N 35°29' E 139°49'5 9.6
2017-Nov-13 01:00N 35°25' E 139°47'612.2
2017-Nov-13 00:30N 35°19' E 139°44'611.4
2017-Nov-13 00:00N 35°14' E 139°47'611.3
2017-Nov-12 23:30N 35°08' E 139°46'511.0
2017-Nov-12 23:00N 35°03' E 139°44'610.8
2017-Nov-12 22:29N 34°57' E 139°44'  

Dump ship's entire track history